Главная страница
METAR-TAF:

METAR-TAF

Аэропорты :

College Park, Мэриленд, США

широта: 38-58-50N, долгота: 076-55-20W, высота над уровнем моря: 15 м

Текущие метеонаблюдения

Эта сводка был подготовлена 35 минут назад, в 00:14 UTC
Ветер 3 Узел от восточно-северо-восточный
Температура 23°C
Влажность 83%
Давление 1018 hPa
Видимость: 16.1 км
Отдельные облака на высоте 2100 фута
Рассеянная облачность на высоте 3400 фута
Сплошная облачность на высоте 4300 фута

METAR: KCGS 210014Z AUTO 07003KT 10SM SCT021 BKN034 OVC043 23/20 A3007 RMK AO1 T02340202

Время: 20:49 (00:49 UTC)


TAF: отсутствует

Метеонаблюдения и прогнозы для более 4000 аэропортов (сводки METAR и TAF).

Имеющиеся станции представлены на карте желтыми и красными точками.

Чтобы увидеть название станции, наведите на нее мышь.

Затем щелкните, чтобы увидеть метеонаблюдения и метеопрогнозы.

Управление картой: чтобы увеличить масштаб, щелкните зеленые кнопки с черным крестиком; чтобы уменьшить масштаб, щелкните зеленую кнопку с тире; для просмотра соседних карт щелкайте зеленые стрелки.


METAR-TAF: